createdAt,value
2022-10-30T00:27:55.444Z,71.96
2022-10-30T00:57:01.488Z,70.74
2022-10-30T01:26:04.252Z,70.77
2022-10-30T01:55:07.235Z,72.14
2022-10-30T02:24:11.098Z,70.38
2022-10-30T02:53:01.415Z,70.7
2022-10-30T03:21:37.275Z,70.71
2022-10-30T03:50:36.580Z,70.62
2022-10-30T04:19:40.538Z,70.66
2022-10-30T04:48:42.910Z,69.38
2022-10-30T05:17:44.144Z,69.26
2022-10-30T05:46:44.299Z,68.32
2022-10-30T06:15:36.740Z,68.89
2022-10-30T06:44:41.377Z,67.89
2022-10-30T07:13:48.094Z,64.33
2022-10-30T07:42:54.122Z,58.49
2022-10-30T08:12:14.352Z,40.32
2022-10-30T08:42:05.049Z,30.61
2022-10-30T09:11:56.048Z,45.73
2022-10-30T09:40:31.008Z,53.46
2022-10-30T10:09:18.807Z,57.05
2022-10-30T10:38:06.240Z,57.15
2022-10-30T11:07:06.566Z,58.9
2022-10-30T11:36:16.409Z,59.9
2022-10-30T12:04:54.623Z,60.49
2022-10-30T12:34:01.122Z,60.02
2022-10-30T13:02:57.529Z,62.71
2022-10-30T13:31:35.429Z,62.14
2022-10-30T14:00:41.172Z,61.46
2022-10-30T14:29:39.004Z,63
2022-10-30T14:58:45.064Z,67.48
2022-10-30T18:24:56.397Z,72.79
2022-10-30T18:53:53.676Z,73.25
2022-10-30T19:22:46.270Z,73.46
2022-10-30T19:51:52.969Z,72.95
2022-10-30T20:20:50.148Z,72.38
2022-10-30T20:49:54.548Z,70.42
2022-10-30T21:18:58.615Z,71.29
2022-10-30T21:47:57.400Z,73.42
2022-10-30T22:17:01.901Z,73.79
2022-10-30T22:46:06.803Z,72.93
2022-10-30T23:14:55.039Z,72.46
2022-10-30T23:43:54.575Z,72.51
